KMHT/MHT METAR and TAF weather

Enter ICAO airport designator
Station Type Date Time Source
KMHT METAR 2018/12/11 19:53 UTC NOAA

KMHT 111953Z 18005KT 10SM CLR 01/M09 A2998 RMK AO2 SLP171 T00061094


Station Type Date Time Source
KMHT Decoded METAR 2018/12/11 19:53 UTC NOAA

MANCHESTER AIRPORT, NH, United States (KMHT) 42-56N 071-26W 81M
Dec 11, 2018 - 02:53 PM EST / 2018.12.11 1953 UTC
Wind: from the S (180 degrees) at 6 MPH (5 KT):0
Visibility: 10 mile(s):0
Sky conditions: clear
Temperature: 33.1 F (0.6 C)
Windchill: 28 F (-2 C):1
Dew Point: 15.1 F (-9.4 C)
Relative Humidity: 47%
Pressure (altimeter): 29.98 in. Hg (1015 hPa)
ob: KMHT 111953Z 18005KT 10SM CLR 01/M09 A2998 RMK AO2 SLP171 T00061094
cycle: 20

Station Type Date Time Source
KMHT TAF 2018/12/11 18:22 UTC NOAA

TAF KMHT 111720Z 1118/1218 VRB03KT P6SM SKC
FM120700 VRB03KT P6SM BKN090


Example: see airport list